createdAt,value
2022-08-04T00:00:28.557Z,28.20
2022-08-04T00:04:01.998Z,28.20
2022-08-04T00:07:43.987Z,28.10
2022-08-04T00:11:11.987Z,28.00
2022-08-04T00:14:56.555Z,28.00
2022-08-04T00:18:27.959Z,28.00
2022-08-04T00:22:00.887Z,28.00
2022-08-04T00:25:25.791Z,27.90
2022-08-04T00:28:49.883Z,27.90
2022-08-04T00:32:15.558Z,27.80
2022-08-04T00:36:00.410Z,27.80
2022-08-04T00:39:24.289Z,27.70
2022-08-04T00:43:00.120Z,27.70
2022-08-04T00:46:56.452Z,27.60
2022-08-04T00:50:32.779Z,27.50
2022-08-04T00:54:12.539Z,27.50
2022-08-04T00:58:01.058Z,27.40
2022-08-04T01:01:50.400Z,27.40
2022-08-04T01:05:27.388Z,27.30
2022-08-04T01:09:07.810Z,27.30
2022-08-04T01:13:03.892Z,27.20
2022-08-04T01:16:36.205Z,27.20
2022-08-04T01:20:07.695Z,27.00
2022-08-04T01:24:16.362Z,27.00
2022-08-04T01:28:13.498Z,27.00
2022-08-04T01:31:51.594Z,27.00
2022-08-04T01:35:47.368Z,27.00
2022-08-04T01:39:29.704Z,27.00
2022-08-04T01:42:55.159Z,27.00
2022-08-04T01:46:19.360Z,27.00
2022-08-04T01:49:50.171Z,27.00
2022-08-04T01:53:14.171Z,26.90
2022-08-04T01:56:38.179Z,23.40
2022-08-04T02:00:02.316Z,26.90
2022-08-04T02:04:18.213Z,26.90
2022-08-04T02:07:51.873Z,26.80
2022-08-04T02:11:21.483Z,26.80
2022-08-04T02:15:00.072Z,26.70
2022-08-04T02:18:29.031Z,26.70
2022-08-04T02:22:04.114Z,26.70
2022-08-04T02:25:37.879Z,26.70
2022-08-04T02:29:17.475Z,26.70
2022-08-04T02:32:45.723Z,26.60
2022-08-04T02:36:14.819Z,26.60
2022-08-04T02:39:48.550Z,26.50
2022-08-04T02:43:19.367Z,26.50
2022-08-04T02:47:03.723Z,26.40
2022-08-04T02:50:30.683Z,26.40
2022-08-04T02:54:00.050Z,26.40
2022-08-04T02:57:28.066Z,26.30
2022-08-04T03:00:53.742Z,26.30
2022-08-04T03:04:50.338Z,26.30
2022-08-04T03:08:57.645Z,26.20
2022-08-04T03:12:58.927Z,26.20
2022-08-04T03:17:11.202Z,26.10
2022-08-04T03:21:36.224Z,26.10
2022-08-04T03:25:36.065Z,26.00
2022-08-04T03:37:51.308Z,25.80
2022-08-04T03:42:05.171Z,25.80
2022-08-04T03:46:20.951Z,25.70
2022-08-04T03:50:41.201Z,25.70
2022-08-04T04:07:09.312Z,25.60
2022-08-04T04:11:06.578Z,25.50
2022-08-04T04:15:08.987Z,25.40
2022-08-04T04:22:59.963Z,25.60
2022-08-04T04:41:06.833Z,26.90
2022-08-04T04:45:11.748Z,27.30
2022-08-04T04:48:48.370Z,27.60
2022-08-04T04:55:52.251Z,28.20
2022-08-04T04:59:22.099Z,28.40
2022-08-04T05:03:13.678Z,28.50
2022-08-04T05:07:12.839Z,28.80
2022-08-04T05:11:02.266Z,29.80
2022-08-04T05:14:41.130Z,30.30
2022-08-04T05:18:13.817Z,30.80
2022-08-04T05:21:45.014Z,31.30
2022-08-04T05:25:20.156Z,31.80
2022-08-04T05:28:54.792Z,31.80
2022-08-04T05:32:24.180Z,32.80
2022-08-04T05:36:20.822Z,33.30
2022-08-04T05:39:47.094Z,33.80
2022-08-04T05:43:12.653Z,34.40
2022-08-04T05:46:38.975Z,34.80
2022-08-04T05:50:06.195Z,35.00
2022-08-04T05:53:31.531Z,35.20
2022-08-04T05:56:56.449Z,35.90
2022-08-04T06:00:40.109Z,36.30
2022-08-04T06:04:11.554Z,36.70
2022-08-04T06:07:35.662Z,37.10
2022-08-04T06:11:23.515Z,37.50
2022-08-04T06:14:52.980Z,37.80
2022-08-04T06:19:58.816Z,38.20
2022-08-04T06:22:07.718Z,38.50
2022-08-04T06:25:39.330Z,38.90
2022-08-04T06:29:04.800Z,39.20
2022-08-04T06:32:41.404Z,39.50
2022-08-04T06:36:08.727Z,39.80
2022-08-04T06:39:35.396Z,40.10
2022-08-04T06:43:03.078Z,40.40
2022-08-04T06:46:28.147Z,40.70
2022-08-04T06:51:27.410Z,41.10
2022-08-04T06:53:38.603Z,41.10
2022-08-04T06:57:04.817Z,41.80
2022-08-04T07:00:30.580Z,42.10
2022-08-04T07:07:19.651Z,42.60
2022-08-04T07:11:00.320Z,42.80
2022-08-04T07:14:27.026Z,43.00
2022-08-04T07:17:53.033Z,43.20
2022-08-04T07:21:24.664Z,43.40
2022-08-04T07:24:48.301Z,43.60
2022-08-04T07:28:11.845Z,43.80
2022-08-04T07:31:36.927Z,43.90
2022-08-04T07:35:00.988Z,43.80
2022-08-04T07:38:27.425Z,44.10
2022-08-04T07:41:52.984Z,44.20
2022-08-04T07:45:21.723Z,44.40
2022-08-04T07:48:47.495Z,44.60
2022-08-04T07:52:11.840Z,44.90
2022-08-04T07:55:35.518Z,45.10
2022-08-04T07:59:00.543Z,45.30
2022-08-04T08:06:16.616Z,45.50
2022-08-04T08:09:35.123Z,45.80
2022-08-04T08:12:59.245Z,45.90
2022-08-04T08:16:23.708Z,45.90
2022-08-04T08:23:14.802Z,46.20
2022-08-04T08:30:02.331Z,46.60
2022-08-04T08:33:26.730Z,46.80
2022-08-04T08:37:03.921Z,46.80
2022-08-04T08:40:40.892Z,46.80
2022-08-04T08:44:47.286Z,46.80
2022-08-04T08:48:49.127Z,47.00
2022-08-04T08:53:01.752Z,47.20
2022-08-04T08:56:38.320Z,47.30
2022-08-04T09:00:16.722Z,47.40
2022-08-04T09:04:31.706Z,47.50
2022-08-04T09:08:16.392Z,47.60
2022-08-04T09:11:51.028Z,47.60
2022-08-04T09:15:23.120Z,47.60
2022-08-04T09:18:55.829Z,47.60
2022-08-04T09:22:29.503Z,47.70
2022-08-04T09:26:02.753Z,47.80
2022-08-04T09:29:41.401Z,48.00
2022-08-04T09:33:44.852Z,48.00
2022-08-04T09:37:24.569Z,48.00
2022-08-04T09:40:58.853Z,48.00
2022-08-04T09:44:49.359Z,47.90
2022-08-04T09:48:29.336Z,48.10
2022-08-04T09:52:11.002Z,48.20
2022-08-04T09:55:56.396Z,48.20
2022-08-04T09:59:28.913Z,48.10
2022-08-04T10:03:01.143Z,48.10
2022-08-04T10:07:14.908Z,48.00
2022-08-04T10:10:52.399Z,48.00
2022-08-04T10:14:38.623Z,48.00
2022-08-04T10:18:39.631Z,48.00
2022-08-04T10:22:28.597Z,48.00
2022-08-04T10:26:18.051Z,48.10
2022-08-04T10:29:46.566Z,48.00
2022-08-04T10:33:24.199Z,48.00
2022-08-04T10:37:00.424Z,48.00
2022-08-04T10:40:40.798Z,48.00
2022-08-04T10:44:23.386Z,48.00
2022-08-04T10:47:57.910Z,48.10
2022-08-04T10:51:58.057Z,48.20
2022-08-04T10:55:22.671Z,48.20
2022-08-04T10:59:14.779Z,48.20
2022-08-04T11:02:46.276Z,48.40
2022-08-04T11:06:10.142Z,48.40
2022-08-04T11:09:36.494Z,48.40
2022-08-04T11:13:07.679Z,48.50
2022-08-04T11:16:53.010Z,48.40
2022-08-04T11:20:37.457Z,48.40
2022-08-04T11:24:09.925Z,48.30
2022-08-04T11:27:48.101Z,48.20
2022-08-04T11:31:20.680Z,48.20
2022-08-04T11:34:53.607Z,48.20
2022-08-04T11:38:31.909Z,48.20
2022-08-04T11:42:06.396Z,48.10
2022-08-04T11:45:38.994Z,48.00
2022-08-04T11:49:09.440Z,47.90
2022-08-04T11:52:36.411Z,47.70
2022-08-04T11:56:07.577Z,47.50
2022-08-04T11:59:36.888Z,47.40
2022-08-04T12:03:25.100Z,47.30
2022-08-04T12:07:15.232Z,47.30
2022-08-04T12:10:52.503Z,47.20
2022-08-04T12:14:39.572Z,47.20
2022-08-04T12:18:20.043Z,47.20
2022-08-04T12:21:53.432Z,47.10
2022-08-04T12:25:29.309Z,46.80
2022-08-04T12:29:10.965Z,46.60
2022-08-04T12:32:48.210Z,46.30
2022-08-04T12:36:21.907Z,46.10
2022-08-04T12:43:39.530Z,45.80
2022-08-04T12:47:28.262Z,45.70
2022-08-04T12:50:54.932Z,45.30
2022-08-04T12:54:29.301Z,45.00
2022-08-04T12:57:55.675Z,44.50
2022-08-04T13:02:09.124Z,44.30
2022-08-04T13:05:10.275Z,44.30
2022-08-04T13:08:46.265Z,44.10
2022-08-04T13:15:47.522Z,44.00
2022-08-04T13:22:46.309Z,44.30
2022-08-04T13:26:43.969Z,44.40
2022-08-04T13:30:04.030Z,44.40
2022-08-04T13:33:33.585Z,44.40
2022-08-04T13:36:58.209Z,44.20
2022-08-04T13:40:30.795Z,44.10
2022-08-04T13:44:17.469Z,44.10
2022-08-04T13:47:45.113Z,44.20
2022-08-04T13:54:42.853Z,44.20
2022-08-04T13:58:12.421Z,44.00
2022-08-04T14:01:39.620Z,43.90
2022-08-04T14:05:18.403Z,43.80
2022-08-04T14:08:52.081Z,43.60
2022-08-04T14:16:03.479Z,43.30
2022-08-04T14:23:02.843Z,42.90
2022-08-04T14:29:57.555Z,42.50
2022-08-04T14:44:09.260Z,41.70
2022-08-04T14:47:52.480Z,41.50
2022-08-04T14:51:16.935Z,41.20
2022-08-04T14:54:50.015Z,41.10
2022-08-04T14:58:35.855Z,41.00
2022-08-04T15:02:02.290Z,40.90
2022-08-04T15:05:55.455Z,40.80
2022-08-04T15:09:12.004Z,40.90
2022-08-04T15:12:35.837Z,40.80
2022-08-04T15:16:07.336Z,40.80
2022-08-04T15:19:33.589Z,40.80
2022-08-04T15:22:57.491Z,40.70
2022-08-04T15:26:31.444Z,40.60
2022-08-04T15:30:02.304Z,40.60
2022-08-04T15:33:34.056Z,40.40
2022-08-04T15:37:03.931Z,40.40
2022-08-04T15:40:36.914Z,40.30
2022-08-04T15:44:47.831Z,40.30
2022-08-04T15:48:34.122Z,40.20
2022-08-04T15:52:02.836Z,40.20
2022-08-04T15:55:37.701Z,40.10
2022-08-04T16:02:46.133Z,39.90
2022-08-04T16:06:47.148Z,39.80
2022-08-04T16:10:39.794Z,39.80
2022-08-04T16:17:41.994Z,39.70
2022-08-04T16:24:38.393Z,39.50
2022-08-04T16:31:26.275Z,39.40
2022-08-04T16:34:57.022Z,39.40
2022-08-04T16:38:21.056Z,39.40
2022-08-04T16:41:46.865Z,39.30
2022-08-04T16:45:14.891Z,39.10
2022-08-04T16:55:29.587Z,39.00
2022-08-04T17:02:26.163Z,39.00
2022-08-04T17:05:50.752Z,39.00
2022-08-04T17:09:17.056Z,38.90
2022-08-04T17:12:40.562Z,38.90
2022-08-04T17:16:13.110Z,38.90
2022-08-04T17:19:37.260Z,38.80
2022-08-04T17:24:16.594Z,38.80
2022-08-04T17:28:20.102Z,38.70
2022-08-04T17:30:58.568Z,38.60
2022-08-04T17:34:26.374Z,38.50
2022-08-04T17:41:30.168Z,38.40
2022-08-04T17:45:50.161Z,38.30
2022-08-04T17:48:59.801Z,38.20
2022-08-04T17:52:41.444Z,38.10
2022-08-04T17:59:56.107Z,37.90
2022-08-04T18:03:29.900Z,37.80
2022-08-04T18:06:55.552Z,37.80
2022-08-04T18:10:51.868Z,37.70
2022-08-04T18:14:28.923Z,37.50
2022-08-04T18:18:20.899Z,37.40
2022-08-04T18:21:45.487Z,37.10
2022-08-04T18:28:42.779Z,36.80
2022-08-04T18:32:06.325Z,36.70
2022-08-04T18:36:35.338Z,36.70
2022-08-04T18:39:18.638Z,36.50
2022-08-04T18:46:28.706Z,36.20
2022-08-04T18:51:01.063Z,36.20
2022-08-04T18:53:38.054Z,36.00
2022-08-04T18:57:25.189Z,35.90
2022-08-04T19:00:52.908Z,36.00
2022-08-04T19:04:33.725Z,35.80
2022-08-04T19:15:20.143Z,35.60
2022-08-04T19:19:00.453Z,35.50
2022-08-04T19:22:35.882Z,35.20
2022-08-04T19:26:04.755Z,35.20
2022-08-04T19:29:37.968Z,35.10
2022-08-04T19:33:05.002Z,35.00
2022-08-04T19:36:33.157Z,34.90
2022-08-04T19:39:59.691Z,34.80
2022-08-04T19:43:24.211Z,34.70
2022-08-04T19:46:49.206Z,34.60
2022-08-04T19:50:14.188Z,34.60
2022-08-04T19:53:43.202Z,34.50
2022-08-04T19:57:09.126Z,34.40
2022-08-04T20:04:09.050Z,34.30
2022-08-04T20:07:34.763Z,34.30
2022-08-04T20:11:00.283Z,34.20
2022-08-04T20:14:32.195Z,34.10
2022-08-04T20:18:08.516Z,34.00
2022-08-04T20:21:55.265Z,32.10
2022-08-04T20:25:36.290Z,33.80
2022-08-04T20:29:02.084Z,33.80
2022-08-04T20:32:29.548Z,33.80
2022-08-04T20:39:30.889Z,33.60
2022-08-04T20:42:54.759Z,33.50
2022-08-04T20:46:29.448Z,33.40
2022-08-04T20:49:55.625Z,33.40
2022-08-04T20:56:58.232Z,33.20
2022-08-04T21:00:26.549Z,33.10
2022-08-04T21:04:27.175Z,33.00
2022-08-04T21:07:56.396Z,33.00
2022-08-04T21:11:19.914Z,32.90
2022-08-04T21:14:47.883Z,32.90
2022-08-04T21:18:11.373Z,32.90
2022-08-04T21:21:35.827Z,32.80
2022-08-04T21:25:00.644Z,32.70
2022-08-04T21:28:25.643Z,32.70
2022-08-04T21:31:51.172Z,32.60
2022-08-04T21:35:17.150Z,32.50
2022-08-04T21:38:51.053Z,32.50
2022-08-04T21:42:42.363Z,32.50
2022-08-04T21:46:04.626Z,32.40
2022-08-04T21:49:29.120Z,32.40
2022-08-04T21:52:52.591Z,32.40
2022-08-04T21:56:16.139Z,32.40
2022-08-04T21:59:51.566Z,32.30
2022-08-04T22:03:53.461Z,32.20
2022-08-04T22:06:58.529Z,32.20
2022-08-04T22:10:32.611Z,30.80
2022-08-04T22:14:11.215Z,32.10
2022-08-04T22:17:36.731Z,32.00
2022-08-04T22:21:00.327Z,31.90
2022-08-04T22:24:23.757Z,31.80
2022-08-04T22:28:03.551Z,31.80
2022-08-04T22:31:27.422Z,31.70
2022-08-04T22:35:36.484Z,31.70
2022-08-04T22:39:04.423Z,31.60
2022-08-04T22:42:31.656Z,31.50
2022-08-04T22:45:55.273Z,31.40
2022-08-04T22:49:20.076Z,31.40
2022-08-04T22:52:56.242Z,31.30
2022-08-04T22:56:37.477Z,31.30
2022-08-04T23:00:02.848Z,31.20
2022-08-04T23:03:37.646Z,31.10
2022-08-04T23:10:34.662Z,31.00
2022-08-04T23:13:58.647Z,31.00
2022-08-04T23:20:47.535Z,30.90
2022-08-04T23:24:16.362Z,30.90
2022-08-04T23:27:43.994Z,30.90
2022-08-04T23:31:15.230Z,30.70
2022-08-04T23:34:38.762Z,30.70
2022-08-04T23:38:30.276Z,30.70
2022-08-04T23:41:54.113Z,30.60
2022-08-04T23:45:24.494Z,30.50
2022-08-04T23:49:04.321Z,30.50
2022-08-04T23:52:30.128Z,30.50
2022-08-04T23:55:54.433Z,30.50
2022-08-04T23:59:52.040Z,30.50
